createdAt,value
2023-08-26T00:01:38.393Z,26.04
2023-08-26T00:04:05.310Z,26.33
2023-08-26T00:06:32.301Z,26.24
2023-08-26T00:08:59.152Z,26.39
2023-08-26T00:11:26.024Z,26.62
2023-08-26T00:13:52.766Z,26.77
2023-08-26T00:16:19.565Z,26.71
2023-08-26T00:18:48.300Z,26.32
2023-08-26T00:21:16.327Z,25.99
2023-08-26T00:23:43.325Z,25.43
2023-08-26T00:26:12.346Z,25.11
2023-08-26T00:28:39.147Z,24.78
2023-08-26T00:31:06.505Z,24.75
2023-08-26T00:33:33.184Z,23.80
2023-08-26T00:36:00.503Z,23.48
2023-08-26T00:38:28.933Z,22.53
2023-08-26T00:40:56.218Z,22.22
2023-08-26T00:43:23.364Z,22.22
2023-08-26T00:45:54.473Z,21.43
2023-08-26T00:48:21.579Z,22.04
2023-08-26T00:50:51.558Z,22.56
2023-08-26T00:53:18.450Z,22.57
2023-08-26T00:55:45.374Z,22.43
2023-08-26T00:58:12.580Z,22.90
2023-08-26T01:00:40.870Z,23.18
2023-08-26T01:03:08.279Z,23.54
2023-08-26T01:05:35.266Z,23.75
2023-08-26T01:08:06.678Z,23.89
2023-08-26T01:11:07.609Z,24.03
2023-08-26T01:13:45.801Z,24.12
2023-08-26T01:16:15.155Z,24.22
2023-08-26T01:18:43.223Z,24.21
2023-08-26T01:21:13.756Z,24.24
2023-08-26T01:23:43.349Z,24.29
2023-08-26T01:26:10.164Z,24.36
2023-08-26T01:28:37.830Z,24.35
2023-08-26T01:31:10.792Z,24.34
2023-08-26T01:34:06.212Z,24.48
2023-08-26T01:36:37.760Z,24.44
2023-08-26T01:39:06.078Z,24.33
2023-08-26T01:41:33.290Z,24.29
2023-08-26T01:44:00.490Z,24.08
2023-08-26T01:46:40.222Z,24.36
2023-08-26T01:49:07.097Z,24.34
2023-08-26T01:51:34.764Z,23.66
2023-08-26T01:54:06.377Z,23.21
2023-08-26T01:56:33.913Z,23.66
2023-08-26T01:59:00.725Z,23.93
2023-08-26T02:01:27.789Z,24.06
2023-08-26T02:03:55.122Z,24.04
2023-08-26T02:06:22.176Z,24.08
2023-08-26T02:08:48.811Z,24.28
2023-08-26T02:11:15.613Z,24.02
2023-08-26T02:13:42.872Z,24.02
2023-08-26T02:16:09.656Z,24.00
2023-08-26T02:18:36.589Z,23.65
2023-08-26T02:21:03.417Z,23.38
2023-08-26T02:23:30.265Z,23.51
2023-08-26T02:25:57.201Z,23.70
2023-08-26T02:28:24.225Z,23.91
2023-08-26T02:30:51.179Z,24.05
2023-08-26T02:33:17.882Z,23.76
2023-08-26T02:35:47.989Z,23.68
2023-08-26T02:38:15.663Z,23.67
2023-08-26T02:40:42.468Z,23.58
2023-08-26T02:43:10.055Z,23.57
2023-08-26T02:45:37.086Z,23.79
2023-08-26T02:48:04.325Z,23.84
2023-08-26T02:50:31.504Z,23.78
2023-08-26T02:52:58.601Z,23.77
2023-08-26T02:55:25.253Z,23.37
2023-08-26T02:57:51.934Z,23.18
2023-08-26T03:00:18.570Z,23.18
2023-08-26T03:02:45.488Z,22.92
2023-08-26T03:05:12.238Z,23.08
2023-08-26T03:07:38.969Z,23.23
2023-08-26T03:10:06.139Z,23.12
2023-08-26T03:12:33.877Z,23.19
2023-08-26T03:15:00.528Z,23.41
2023-08-26T03:17:27.356Z,23.55
2023-08-26T03:19:54.295Z,23.27
2023-08-26T03:22:20.988Z,23.51
2023-08-26T03:24:47.840Z,23.38
2023-08-26T03:27:15.592Z,23.47
2023-08-26T03:29:42.420Z,23.45
2023-08-26T03:32:09.328Z,23.18
2023-08-26T03:34:35.934Z,23.33
2023-08-26T03:37:03.120Z,23.28
2023-08-26T03:39:31.100Z,23.35
2023-08-26T03:41:57.773Z,23.49
2023-08-26T03:44:24.416Z,23.38
2023-08-26T03:46:51.254Z,23.19
2023-08-26T03:49:17.917Z,23.11
2023-08-26T03:51:44.866Z,23.11
2023-08-26T03:54:12.239Z,23.23
2023-08-26T03:56:39.109Z,23.11
2023-08-26T03:59:05.781Z,23.12
2023-08-26T04:01:32.571Z,23.43
2023-08-26T04:03:59.382Z,23.62
2023-08-26T04:06:26.428Z,23.72
2023-08-26T04:08:53.225Z,23.78
2023-08-26T04:11:20.429Z,23.87
2023-08-26T04:13:47.287Z,23.66
2023-08-26T04:16:16.855Z,23.62
2023-08-26T04:18:46.541Z,23.66
2023-08-26T04:21:13.575Z,23.72
2023-08-26T04:23:40.494Z,23.82
2023-08-26T04:26:07.309Z,23.81
2023-08-26T04:28:34.047Z,23.79
2023-08-26T04:31:01.482Z,23.81
2023-08-26T04:33:28.421Z,23.80
2023-08-26T04:35:55.185Z,23.85
2023-08-26T04:38:22.046Z,23.78
2023-08-26T04:40:48.738Z,23.66
2023-08-26T04:43:15.393Z,23.53
2023-08-26T04:45:42.313Z,23.63
2023-08-26T04:48:10.424Z,23.53
2023-08-26T04:50:38.026Z,23.45
2023-08-26T04:53:05.277Z,23.27
2023-08-26T04:55:34.006Z,23.08
2023-08-26T04:58:02.755Z,23.08
2023-08-26T05:00:29.982Z,23.27
2023-08-26T05:02:56.830Z,23.32
2023-08-26T05:05:23.562Z,23.19
2023-08-26T05:07:50.426Z,22.68
2023-08-26T05:10:17.128Z,23.03
2023-08-26T05:12:43.886Z,23.21
2023-08-26T05:15:10.781Z,23.35
2023-08-26T05:17:37.479Z,23.34
2023-08-26T05:20:05.444Z,23.10
2023-08-26T05:22:32.274Z,22.85
2023-08-26T05:24:59.077Z,23.10
2023-08-26T05:27:27.976Z,23.28
2023-08-26T05:29:55.900Z,23.46
2023-08-26T05:32:23.448Z,23.57
2023-08-26T05:34:50.108Z,23.40
2023-08-26T05:37:18.442Z,23.45
2023-08-26T05:39:45.122Z,23.55
2023-08-26T05:42:11.938Z,23.43
2023-08-26T05:44:39.368Z,23.53
2023-08-26T05:47:07.396Z,23.59
2023-08-26T05:49:34.092Z,23.61
2023-08-26T05:52:00.894Z,23.42
2023-08-26T05:54:27.763Z,23.42
2023-08-26T05:56:54.853Z,23.55
2023-08-26T05:59:21.590Z,23.64
2023-08-26T06:01:48.407Z,23.68
2023-08-26T06:04:15.143Z,23.71
2023-08-26T06:06:42.674Z,23.67
2023-08-26T06:09:10.644Z,23.65
2023-08-26T06:11:39.292Z,23.58
2023-08-26T06:14:06.500Z,23.63
2023-08-26T06:16:33.975Z,23.43
2023-08-26T06:19:00.656Z,23.31
2023-08-26T06:21:27.419Z,23.37
2023-08-26T06:23:54.496Z,23.17
2023-08-26T06:26:21.259Z,23.14
2023-08-26T06:28:47.963Z,23.01
2023-08-26T06:31:14.734Z,23.17
2023-08-26T06:33:44.853Z,23.27
2023-08-26T06:36:11.637Z,23.31
2023-08-26T06:38:38.348Z,23.34
2023-08-26T06:41:05.103Z,23.20
2023-08-26T06:43:31.889Z,23.38
2023-08-26T06:46:00.102Z,23.50
2023-08-26T06:48:28.715Z,23.65
2023-08-26T06:50:55.719Z,23.74
2023-08-26T06:53:22.575Z,23.59
2023-08-26T06:55:51.886Z,23.73
2023-08-26T06:58:20.885Z,23.79
2023-08-26T07:00:48.331Z,23.61
2023-08-26T07:03:15.065Z,23.66
2023-08-26T07:05:46.815Z,23.69
2023-08-26T07:08:16.876Z,23.50
2023-08-26T07:10:46.000Z,23.49
2023-08-26T07:13:13.812Z,23.58
2023-08-26T07:15:40.761Z,23.72
2023-08-26T07:18:07.791Z,23.86
2023-08-26T07:20:34.655Z,23.82
2023-08-26T07:23:01.315Z,23.72
2023-08-26T07:25:28.160Z,23.60
2023-08-26T07:27:55.040Z,23.70
2023-08-26T07:30:22.312Z,23.91
2023-08-26T07:32:48.990Z,24.03
2023-08-26T07:35:15.820Z,23.71
2023-08-26T07:37:42.435Z,23.72
2023-08-26T07:40:15.062Z,23.72
2023-08-26T07:42:43.108Z,23.81
2023-08-26T07:45:10.596Z,23.97
2023-08-26T07:50:07.898Z,24.14
2023-08-26T07:52:34.662Z,24.01
2023-08-26T07:55:01.331Z,24.06
2023-08-26T07:57:28.072Z,24.18
2023-08-26T07:59:55.104Z,24.20
2023-08-26T08:02:21.749Z,24.31
2023-08-26T08:04:49.120Z,24.29
2023-08-26T08:07:15.756Z,24.31
2023-08-26T08:09:42.519Z,24.29
2023-08-26T08:12:10.620Z,24.40
2023-08-26T08:14:37.680Z,24.48
2023-08-26T08:17:04.785Z,24.46
2023-08-26T08:19:31.776Z,24.43
2023-08-26T08:21:58.519Z,24.47
2023-08-26T08:24:25.378Z,24.51
2023-08-26T08:26:52.139Z,24.69
2023-08-26T08:29:19.217Z,24.78
2023-08-26T08:31:45.936Z,24.88
2023-08-26T08:34:12.697Z,24.67
2023-08-26T08:36:39.306Z,24.81
2023-08-26T08:39:07.378Z,24.84
2023-08-26T08:41:38.941Z,24.83
2023-08-26T08:44:14.829Z,24.90
2023-08-26T08:46:42.203Z,25.00
2023-08-26T08:49:09.763Z,25.01
2023-08-26T08:51:37.824Z,25.01
2023-08-26T08:54:06.317Z,24.98
2023-08-26T08:56:36.100Z,24.98
2023-08-26T08:59:03.462Z,24.98
2023-08-26T09:01:31.964Z,24.99
2023-08-26T09:03:58.752Z,24.96
2023-08-26T09:06:25.604Z,24.92
2023-08-26T09:08:52.701Z,24.92
2023-08-26T09:11:19.412Z,24.85
2023-08-26T09:13:46.649Z,24.77
2023-08-26T09:16:13.572Z,24.83
2023-08-26T09:18:40.771Z,24.86
2023-08-26T09:21:11.651Z,24.92
2023-08-26T09:23:43.165Z,24.88
2023-08-26T09:26:11.493Z,24.94
2023-08-26T09:28:38.795Z,24.95
2023-08-26T09:31:08.978Z,24.95
2023-08-26T09:33:35.872Z,25.04
2023-08-26T09:38:48.377Z,25.04
2023-08-26T09:41:20.749Z,25.22
2023-08-26T09:43:48.458Z,25.36
2023-08-26T09:46:22.111Z,25.14
2023-08-26T09:48:49.931Z,25.32
2023-08-26T09:51:29.323Z,25.40
2023-08-26T09:53:56.347Z,25.40
2023-08-26T09:56:25.107Z,25.54
2023-08-26T09:58:53.129Z,25.71
2023-08-26T10:01:24.233Z,25.90
2023-08-26T10:03:54.751Z,25.91
2023-08-26T10:06:26.730Z,25.95
2023-08-26T10:09:01.350Z,25.89
2023-08-26T10:11:30.244Z,25.85
2023-08-26T10:13:59.698Z,25.90
2023-08-26T10:16:35.630Z,25.97
2023-08-26T10:19:04.918Z,25.97
2023-08-26T10:21:33.433Z,25.93
2023-08-26T10:24:01.290Z,25.99
2023-08-26T10:26:28.419Z,26.11
2023-08-26T10:28:58.931Z,26.18
2023-08-26T10:31:37.226Z,26.15
2023-08-26T10:34:06.981Z,26.20
2023-08-26T10:36:40.886Z,26.21
2023-08-26T10:39:16.709Z,26.22
2023-08-26T10:42:19.846Z,26.31
2023-08-26T10:44:57.915Z,26.52
2023-08-26T10:47:39.706Z,26.71
2023-08-26T10:50:23.813Z,26.68
2023-08-26T10:52:53.440Z,26.58
2023-08-26T10:55:26.299Z,26.51
2023-08-26T10:58:08.269Z,26.35
2023-08-26T11:00:36.369Z,26.38
2023-08-26T11:03:04.441Z,26.31
2023-08-26T11:05:31.886Z,26.43
2023-08-26T11:07:58.955Z,26.45
2023-08-26T11:10:30.951Z,26.36
2023-08-26T11:12:58.359Z,26.33
2023-08-26T11:15:25.398Z,26.33
2023-08-26T11:17:52.512Z,26.30
2023-08-26T11:20:19.699Z,26.39
2023-08-26T11:22:47.005Z,26.45
2023-08-26T11:25:17.766Z,26.42
2023-08-26T11:27:44.859Z,26.54
2023-08-26T11:30:12.388Z,26.71
2023-08-26T11:32:40.672Z,26.85
2023-08-26T11:35:09.708Z,26.90
2023-08-26T11:37:48.143Z,26.93
2023-08-26T11:40:16.853Z,26.84
2023-08-26T11:42:48.769Z,26.86
2023-08-26T11:45:15.426Z,27.03
2023-08-26T11:47:42.419Z,27.09
2023-08-26T11:50:12.754Z,27.15
2023-08-26T11:52:40.941Z,27.20
2023-08-26T11:55:09.902Z,27.29
2023-08-26T11:57:39.049Z,27.26
2023-08-26T12:00:18.043Z,27.23
2023-08-26T12:02:49.431Z,27.20
2023-08-26T12:05:17.184Z,27.14
2023-08-26T12:07:48.980Z,27.10
2023-08-26T12:10:19.302Z,27.07
2023-08-26T12:12:47.708Z,27.07
2023-08-26T12:15:20.476Z,27.06
2023-08-26T12:17:52.508Z,27.01
2023-08-26T12:20:27.280Z,26.94
2023-08-26T12:22:55.646Z,26.86
2023-08-26T12:25:27.611Z,26.78
2023-08-26T12:28:04.896Z,26.76
2023-08-26T12:30:31.609Z,26.73
2023-08-26T12:32:58.335Z,26.78
2023-08-26T12:35:25.102Z,26.77
2023-08-26T12:37:51.823Z,26.73
2023-08-26T12:40:18.550Z,26.58
2023-08-26T12:42:45.185Z,26.61
2023-08-26T12:45:12.005Z,26.52
2023-08-26T12:47:38.810Z,26.57
2023-08-26T12:50:06.110Z,26.58
2023-08-26T12:52:32.836Z,26.57
2023-08-26T12:54:59.563Z,26.57
2023-08-26T12:57:26.212Z,26.53
2023-08-26T12:59:52.992Z,26.44
2023-08-26T13:02:19.700Z,26.46
2023-08-26T13:04:46.546Z,26.51
2023-08-26T13:07:13.362Z,26.53
2023-08-26T13:09:40.500Z,26.56
2023-08-26T13:12:07.647Z,26.49
2023-08-26T13:14:34.553Z,26.50
2023-08-26T13:17:01.253Z,26.48
2023-08-26T13:19:27.961Z,26.51
2023-08-26T13:21:54.882Z,26.48
2023-08-26T13:24:21.608Z,26.45
2023-08-26T13:26:48.388Z,26.45
2023-08-26T13:29:15.237Z,26.40
2023-08-26T13:31:41.971Z,26.42
2023-08-26T13:34:08.751Z,26.40
2023-08-26T13:36:50.371Z,26.35
2023-08-26T13:39:17.971Z,26.28
2023-08-26T13:41:44.714Z,26.15
2023-08-26T13:44:11.491Z,25.99
2023-08-26T13:46:38.230Z,25.64
2023-08-26T13:49:05.026Z,25.03
2023-08-26T13:51:31.706Z,24.30
2023-08-26T13:54:00.231Z,23.25
2023-08-26T13:56:27.476Z,22.51
2023-08-26T13:58:54.185Z,21.86
2023-08-26T14:01:21.031Z,22.16
2023-08-26T14:03:47.821Z,22.12
2023-08-26T14:06:14.501Z,22.45
2023-08-26T14:08:41.214Z,22.49
2023-08-26T14:11:08.489Z,22.68
2023-08-26T14:13:35.436Z,22.95
2023-08-26T14:16:02.093Z,23.16
2023-08-26T14:18:28.846Z,23.35
2023-08-26T14:20:55.584Z,23.62
2023-08-26T14:23:22.399Z,23.77
2023-08-26T14:25:49.524Z,23.86
2023-08-26T14:28:16.909Z,23.77
2023-08-26T14:30:43.542Z,23.45
2023-08-26T14:33:10.456Z,23.35
2023-08-26T14:35:37.114Z,23.31
2023-08-26T14:38:04.675Z,23.25
2023-08-26T14:40:31.787Z,23.28
2023-08-26T14:42:58.744Z,23.36
2023-08-26T14:45:26.360Z,23.50
2023-08-26T14:47:53.174Z,23.55
2023-08-26T14:50:19.913Z,23.59
2023-08-26T14:52:46.993Z,23.68
2023-08-26T14:55:14.144Z,23.78
2023-08-26T14:57:41.122Z,23.89
2023-08-26T15:00:11.086Z,23.88
2023-08-26T15:02:38.409Z,23.72
2023-08-26T15:05:05.555Z,23.52
2023-08-26T15:07:32.575Z,23.44
2023-08-26T15:10:00.320Z,23.68
2023-08-26T15:12:28.903Z,23.70
2023-08-26T15:14:56.627Z,23.69
2023-08-26T15:17:24.788Z,23.79
2023-08-26T15:19:52.806Z,23.83
2023-08-26T15:22:20.446Z,23.75
2023-08-26T15:24:47.090Z,23.79
2023-08-26T15:27:13.775Z,23.81
2023-08-26T15:29:40.414Z,23.81
2023-08-26T15:32:07.258Z,23.84
2023-08-26T15:34:33.980Z,23.92
2023-08-26T15:37:00.725Z,23.94
2023-08-26T15:39:27.404Z,24.08
2023-08-26T15:41:54.127Z,24.02
2023-08-26T15:44:20.892Z,23.93
2023-08-26T15:46:47.654Z,23.91
2023-08-26T15:49:14.281Z,24.09
2023-08-26T15:51:41.044Z,24.12
2023-08-26T15:54:08.128Z,24.26
2023-08-26T15:56:34.806Z,24.36
2023-08-26T15:59:01.445Z,24.46
2023-08-26T16:01:30.249Z,24.55
2023-08-26T16:03:57.399Z,24.55
2023-08-26T16:06:24.275Z,24.22
2023-08-26T16:08:51.730Z,24.20
2023-08-26T16:11:18.605Z,24.33
2023-08-26T16:13:45.712Z,24.46
2023-08-26T16:16:12.619Z,24.58
2023-08-26T16:18:39.653Z,24.65
2023-08-26T16:21:09.259Z,24.74
2023-08-26T16:23:37.106Z,24.81
2023-08-26T16:26:03.749Z,24.80
2023-08-26T16:28:30.507Z,24.79
2023-08-26T16:30:57.746Z,24.72
2023-08-26T16:33:24.662Z,24.70
2023-08-26T16:35:51.810Z,24.67
2023-08-26T16:38:20.649Z,24.64
2023-08-26T16:40:52.034Z,24.54
2023-08-26T16:43:18.762Z,24.58
2023-08-26T16:45:47.307Z,24.55
2023-08-26T16:48:14.133Z,24.51
2023-08-26T16:50:42.530Z,24.51
2023-08-26T16:53:09.637Z,24.48
2023-08-26T16:55:36.972Z,24.37
2023-08-26T16:58:03.885Z,24.35
2023-08-26T17:00:30.674Z,24.31
2023-08-26T17:02:57.640Z,24.30
2023-08-26T17:05:24.787Z,24.29
2023-08-26T17:07:51.663Z,24.24
2023-08-26T17:10:18.423Z,24.23
2023-08-26T17:12:46.910Z,24.28
2023-08-26T17:15:13.843Z,24.34
2023-08-26T17:17:40.635Z,24.36
2023-08-26T17:20:07.973Z,24.40
2023-08-26T17:22:35.312Z,24.38
2023-08-26T17:25:02.012Z,24.19
2023-08-26T17:27:33.054Z,24.24
2023-08-26T17:29:59.846Z,24.20
2023-08-26T17:32:26.663Z,24.01
2023-08-26T17:34:53.481Z,23.91
2023-08-26T17:37:20.938Z,23.76
2023-08-26T17:39:47.823Z,23.86
2023-08-26T17:42:14.545Z,23.97
2023-08-26T17:44:41.316Z,24.08
2023-08-26T17:47:08.066Z,24.10
2023-08-26T17:49:34.779Z,24.02
2023-08-26T17:52:01.480Z,23.95
2023-08-26T17:54:28.248Z,23.92
2023-08-26T17:56:54.991Z,23.95
2023-08-26T17:59:21.762Z,24.01
2023-08-26T18:01:48.413Z,24.03
2023-08-26T18:04:15.198Z,24.03
2023-08-26T18:06:42.639Z,23.91
2023-08-26T18:09:11.086Z,23.91
2023-08-26T18:11:37.744Z,23.95
2023-08-26T18:14:04.828Z,23.96
2023-08-26T18:16:31.824Z,24.01
2023-08-26T18:18:58.531Z,23.93
2023-08-26T18:21:25.261Z,23.80
2023-08-26T18:23:52.024Z,23.67
2023-08-26T18:26:18.647Z,23.62
2023-08-26T18:28:45.380Z,23.56
2023-08-26T18:31:12.044Z,23.33
2023-08-26T18:33:38.785Z,23.37
2023-08-26T18:36:06.012Z,23.41
2023-08-26T18:38:32.707Z,23.22
2023-08-26T18:41:00.688Z,23.34
2023-08-26T18:43:27.838Z,23.40
2023-08-26T18:45:56.289Z,23.44
2023-08-26T18:48:22.969Z,23.40
2023-08-26T18:51:00.659Z,23.13
2023-08-26T18:53:27.922Z,23.24
2023-08-26T18:55:55.441Z,23.27
2023-08-26T18:58:25.605Z,23.25
2023-08-26T19:00:55.700Z,23.13
2023-08-26T19:03:22.741Z,23.10
2023-08-26T19:05:51.020Z,23.17
2023-08-26T19:08:18.541Z,23.22
2023-08-26T19:10:47.027Z,23.23
2023-08-26T19:13:14.133Z,23.12
2023-08-26T19:15:41.980Z,23.25
2023-08-26T19:18:09.711Z,23.25
2023-08-26T19:20:39.866Z,23.30
2023-08-26T19:23:07.304Z,23.34
2023-08-26T19:25:35.645Z,23.22
2023-08-26T19:28:02.567Z,23.15
2023-08-26T19:30:29.193Z,23.00
2023-08-26T19:32:56.831Z,23.00
2023-08-26T19:35:24.656Z,23.05
2023-08-26T19:37:51.501Z,23.09
2023-08-26T19:40:18.553Z,22.99
2023-08-26T19:42:45.332Z,22.99
2023-08-26T19:45:12.147Z,23.00
2023-08-26T19:47:39.429Z,23.04
2023-08-26T19:50:06.655Z,23.20
2023-08-26T19:52:34.520Z,23.26
2023-08-26T19:55:05.413Z,23.13
2023-08-26T19:57:32.223Z,23.02
2023-08-26T19:59:59.704Z,22.96
2023-08-26T20:02:26.815Z,22.85
2023-08-26T20:04:53.601Z,22.82
2023-08-26T20:07:20.516Z,22.79
2023-08-26T20:09:47.290Z,22.84
2023-08-26T20:12:14.214Z,22.84
2023-08-26T20:14:41.698Z,22.98
2023-08-26T20:17:09.872Z,22.92
2023-08-26T20:19:38.459Z,22.91
2023-08-26T20:22:06.285Z,23.04
2023-08-26T20:24:33.037Z,23.10
2023-08-26T20:27:00.004Z,23.12
2023-08-26T20:29:26.651Z,23.16
2023-08-26T20:31:54.136Z,23.20
2023-08-26T20:34:20.885Z,23.25
2023-08-26T20:36:49.294Z,23.29
2023-08-26T20:39:16.299Z,23.34
2023-08-26T20:41:43.609Z,23.33
2023-08-26T20:44:10.417Z,23.32
2023-08-26T20:46:37.468Z,23.17
2023-08-26T20:49:04.279Z,23.18
2023-08-26T20:51:31.778Z,23.19
2023-08-26T20:53:58.680Z,23.18
2023-08-26T20:56:27.187Z,23.15
2023-08-26T20:58:57.412Z,23.21
2023-08-26T21:01:25.711Z,23.28
2023-08-26T21:03:53.275Z,23.21
2023-08-26T21:06:20.572Z,23.18
2023-08-26T21:08:47.277Z,23.05
2023-08-26T21:11:14.025Z,22.90
2023-08-26T21:13:41.380Z,22.97
2023-08-26T21:16:08.504Z,22.86
2023-08-26T21:18:35.768Z,22.80
2023-08-26T21:21:03.871Z,22.72
2023-08-26T21:23:30.718Z,22.87
2023-08-26T21:25:57.704Z,22.69
2023-08-26T21:28:27.729Z,22.72
2023-08-26T21:30:55.110Z,22.68
2023-08-26T21:33:23.060Z,22.75
2023-08-26T21:35:50.624Z,22.89
2023-08-26T21:38:17.392Z,22.91
2023-08-26T21:40:44.590Z,22.94
2023-08-26T21:43:14.349Z,22.86
2023-08-26T21:45:41.422Z,22.97
2023-08-26T21:48:08.493Z,22.93
2023-08-26T21:50:43.013Z,22.98
2023-08-26T21:53:09.760Z,23.07
2023-08-26T21:55:36.540Z,23.10
2023-08-26T21:58:07.817Z,23.07
2023-08-26T22:00:35.718Z,23.02
2023-08-26T22:03:03.524Z,23.06
2023-08-26T22:05:32.901Z,23.08
2023-08-26T22:08:00.504Z,23.11
2023-08-26T22:10:27.595Z,23.15
2023-08-26T22:12:55.812Z,23.17
2023-08-26T22:15:23.941Z,23.16
2023-08-26T22:17:51.066Z,23.13
2023-08-26T22:20:17.918Z,23.13
2023-08-26T22:22:45.581Z,23.14
2023-08-26T22:25:12.799Z,23.18
2023-08-26T22:27:41.419Z,23.19
2023-08-26T22:30:09.637Z,23.01
2023-08-26T22:32:37.846Z,22.92
2023-08-26T22:35:05.302Z,22.91
2023-08-26T22:37:35.486Z,22.95
2023-08-26T22:40:05.095Z,22.84
2023-08-26T22:42:33.161Z,22.74
2023-08-26T22:45:00.240Z,22.82
2023-08-26T22:47:29.997Z,22.85
2023-08-26T22:50:00.041Z,22.88
2023-08-26T22:52:26.696Z,22.91
2023-08-26T22:54:53.665Z,22.89
2023-08-26T22:57:21.033Z,22.95
2023-08-26T22:59:47.646Z,22.92
2023-08-26T23:02:14.428Z,22.85
2023-08-26T23:04:41.951Z,22.91
2023-08-26T23:07:09.428Z,22.93
2023-08-26T23:09:36.525Z,22.91
2023-08-26T23:12:04.857Z,22.86
2023-08-26T23:14:31.711Z,22.91
2023-08-26T23:16:58.514Z,22.82
2023-08-26T23:19:25.234Z,22.80
2023-08-26T23:21:57.033Z,22.79
2023-08-26T23:24:24.150Z,22.74
2023-08-26T23:26:52.136Z,22.67
2023-08-26T23:29:19.026Z,22.70
2023-08-26T23:31:45.788Z,22.57
2023-08-26T23:34:18.813Z,22.53
2023-08-26T23:36:47.294Z,22.51
2023-08-26T23:39:14.469Z,22.33
2023-08-26T23:41:42.265Z,22.35
2023-08-26T23:44:09.238Z,22.48
2023-08-26T23:46:36.212Z,22.39
2023-08-26T23:49:03.797Z,22.28
2023-08-26T23:51:30.973Z,21.78
2023-08-26T23:53:58.143Z,21.30
2023-08-26T23:56:24.930Z,21.42
2023-08-26T23:58:52.024Z,21.63
